Startpagina
METAR-TAF:

METAR-TAF

Vliegvelden :

Vliegbasis Deelen

Arnhem, Nederland

breedte: 52-04N, lengte: 005-53E, hoogte: 48 m

Actueel weer

Dit bericht is 23 minuten geleden gemaakt, om 01:25 UTC
Wind 9 kt uit het oostnoordoosten, variërend tussen het noorden en het zuidoosten
Temperatuur 1°C
Vochtigheid 86%
Druk 1031 hPa
Zicht 10 km of meer

METAR: EHDL 180125Z AUTO 07009KT 010V130 9999 NCD 01/M01 Q1031 BLU

Tijdstip: 02:48 (01:48 UTC)


TAF: ontbreekt

Waarnemingen en weersverwachtingen van meer dan 4000 vliegvelden (METAR en TAF).

De beschikbare stations zijn de gele en rode punten op de kaart.

Ga met uw muis naar het station om de naam te zien.

Klik dan om waarnemingen en weersverwachtingen te zien.

kaart wijzigen: klik op de groene knoppen met een zwart kruis om in te zoomen, op de groene knop met een streepje om uit te zoomen of op de groene pijlen voor aangrenzende kaarten.


METAR-TAF: